Time;durP1;ratioP1;P1;durP2;ratioP2;P2;SDS_P1;SDS_P2;PMS_P1;PMS_P2;Temp;Humidity;BMP_temperature;BMP_pressure;BME280_temperature;BME280_humidity;BME280_pressure;Samples;Min_cycle;Max_cycle;Signal;HPM_P1;HPM_P2
2022/11/02 00:00:56;;;;;;;10.20;2.13;;;14.20;99.90;;;;;;5051064;28;20043;-83
2022/11/02 00:03:22;;;;;;;10.23;2.15;;;14.20;99.90;;;;;;5033046;28;20116;-83
2022/11/02 00:05:48;;;;;;;10.52;2.13;;;14.20;99.90;;;;;;5050660;28;20432;-83
2022/11/02 00:08:14;;;;;;;7.43;1.98;;;14.20;99.90;;;;;;5050689;28;20158;-83
2022/11/02 00:10:40;;;;;;;7.47;1.85;;;14.20;99.90;;;;;;5050631;28;20060;-83
2022/11/02 00:13:05;;;;;;;11.00;2.10;;;14.20;99.90;;;;;;5032800;28;20028;-83
2022/11/02 00:15:34;;;;;;;14.48;2.10;;;14.20;99.90;;;;;;5050891;28;20492;-83
2022/11/02 00:18:08;;;;;;;14.02;2.03;;;14.20;99.90;;;;;;5050979;28;20043;-83
2022/11/02 00:20:38;;;;;;;9.10;1.88;;;14.20;99.90;;;;;;5033010;28;20072;-83
2022/11/02 00:23:06;;;;;;;13.50;2.33;;;14.10;99.90;;;;;;5050588;28;20028;-83
2022/11/02 00:25:32;;;;;;;10.43;1.95;;;14.10;99.90;;;;;;5050840;28;20051;-83
2022/11/02 00:27:58;;;;;;;12.07;2.28;;;14.10;99.90;;;;;;5032234;28;20354;-83
2022/11/02 00:30:24;;;;;;;11.23;2.17;;;14.10;99.90;;;;;;5032680;28;20029;-84
2022/11/02 00:32:50;;;;;;;12.60;2.00;;;14.10;99.90;;;;;;5032834;28;20048;-83
2022/11/02 00:35:17;;;;;;;13.43;2.17;;;14.00;99.90;;;;;;5050921;28;20383;-83
2022/11/02 00:37:44;;;;;;;12.95;2.05;;;14.00;99.90;;;;;;5020360;28;20430;-83
2022/11/02 00:40:11;;;;;;;9.98;2.13;;;14.00;99.90;;;;;;5036683;28;20033;-83
2022/11/02 00:42:36;;;;;;;11.98;2.45;;;14.00;99.90;;;;;;5036786;28;20033;-83
2022/11/02 00:45:02;;;;;;;9.23;2.20;;;14.00;99.90;;;;;;5054457;28;20040;-83
2022/11/02 00:47:28;;;;;;;10.45;2.45;;;14.00;99.90;;;;;;5054187;28;20033;-84
2022/11/02 00:49:54;;;;;;;10.45;1.80;;;14.00;99.90;;;;;;5038528;28;20048;-83
2022/11/02 00:52:20;;;;;;;13.52;2.03;;;14.00;99.90;;;;;;5036696;28;20033;-83
2022/11/02 00:54:49;;;;;;;11.70;2.03;;;14.00;99.90;;;;;;5036746;28;20024;-83
2022/11/02 00:57:15;;;;;;;13.40;2.22;;;14.00;99.90;;;;;;5036299;28;20095;-83
2022/11/02 00:59:41;;;;;;;12.63;2.63;;;14.10;99.90;;;;;;5036243;28;20120;-83
2022/11/02 01:02:07;;;;;;;10.57;1.70;;;14.10;99.90;;;;;;5036475;28;20072;-83
2022/11/02 01:04:33;;;;;;;10.75;2.13;;;14.10;99.90;;;;;;5054500;28;20032;-84
2022/11/02 01:06:58;;;;;;;9.68;1.85;;;14.10;99.90;;;;;;5036521;28;20124;-83
2022/11/02 01:09:24;;;;;;;10.52;1.70;;;14.10;99.90;;;;;;5054159;28;20025;-83
2022/11/02 01:11:50;;;;;;;9.93;1.70;;;14.20;99.90;;;;;;5054235;28;20048;-84
2022/11/02 01:14:16;;;;;;;14.48;2.30;;;14.20;99.90;;;;;;5054108;28;20029;-84
2022/11/02 01:16:43;;;;;;;8.68;1.98;;;14.20;99.90;;;;;;5036067;28;20489;-84
2022/11/02 01:19:10;;;;;;;9.52;1.70;;;14.20;99.90;;;;;;5035914;28;20086;-84
2022/11/02 01:21:35;;;;;;;9.30;1.90;;;14.30;99.90;;;;;;5054504;28;20381;-84
2022/11/02 01:24:01;;;;;;;6.85;1.58;;;14.20;99.90;;;;;;5054236;28;20032;-84
2022/11/02 01:26:27;;;;;;;12.35;1.85;;;14.30;99.90;;;;;;5054210;28;20108;-83
2022/11/02 01:28:53;;;;;;;12.43;3.05;;;14.20;99.90;;;;;;5054012;28;20031;-83
2022/11/02 01:31:19;;;;;;;12.35;2.25;;;14.30;99.90;;;;;;5053741;28;20032;-84
2022/11/02 01:33:46;;;;;;;11.95;1.90;;;14.40;99.90;;;;;;5054404;28;20033;-84
2022/11/02 01:36:13;;;;;;;11.88;2.28;;;14.40;99.90;;;;;;5054393;28;20028;-83
2022/11/02 01:38:39;;;;;;;9.60;1.80;;;14.40;99.90;;;;;;5044874;23;20049;-84
2022/11/02 01:41:05;;;;;;;9.02;1.38;;;14.40;99.90;;;;;;5054740;28;20029;-84
2022/11/02 01:43:34;;;;;;;10.68;2.10;;;14.40;99.90;;;;;;5054018;28;20126;-84
2022/11/02 01:46:05;;;;;;;14.60;1.95;;;14.30;99.90;;;;;;5035883;28;20029;-84
2022/11/02 01:48:35;;;;;;;10.90;1.55;;;14.30;99.90;;;;;;5052192;28;20397;-84
2022/11/02 01:51:05;;;;;;;8.27;1.73;;;14.40;99.90;;;;;;5035505;28;20569;-84
2022/11/02 01:53:34;;;;;;;8.70;2.03;;;14.40;99.90;;;;;;5053350;28;20033;-85
2022/11/02 01:56:03;;;;;;;10.98;1.70;;;14.40;99.90;;;;;;5053336;28;20028;-85
2022/11/02 01:58:30;;;;;;;8.13;2.05;;;14.30;99.90;;;;;;5035378;28;20123;-85
2022/11/02 02:00:56;;;;;;;10.65;1.73;;;14.40;99.90;;;;;;5035595;28;20127;-85
2022/11/02 02:03:23;;;;;;;7.50;1.73;;;14.30;99.90;;;;;;5018841;28;20620;-85
2022/11/02 02:05:59;;;;;;;9.30;2.10;;;14.30;99.90;;;;;;5018581;28;20047;-85
2022/11/02 02:08:26;;;;;;;9.73;1.83;;;14.30;99.90;;;;;;5035702;28;20021;-85
2022/11/02 02:10:56;;;;;;;12.95;2.00;;;14.30;99.90;;;;;;5019023;28;20029;-85
2022/11/02 02:13:23;;;;;;;12.85;2.00;;;14.30;99.90;;;;;;5035546;28;20043;-85
2022/11/02 02:15:54;;;;;;;10.43;1.60;;;14.30;99.90;;;;;;5035181;28;20029;-85
2022/11/02 02:18:41;;;;;;;10.45;2.17;;;14.30;99.90;;;;;;5035815;28;20068;-85
2022/11/02 02:21:22;;;;;;;9.00;1.88;;;14.20;99.90;;;;;;5053422;28;20036;-85
2022/11/02 02:24:26;;;;;;;10.05;1.75;;;14.20;99.90;;;;;;5034958;28;20060;-85
2022/11/02 02:27:20;;;;;;;11.45;1.98;;;14.20;99.90;;;;;;5030461;28;20072;-85
2022/11/02 02:29:55;;;;;;;10.25;1.90;;;14.20;99.90;;;;;;5035062;28;20029;-85
2022/11/02 02:32:33;;;;;;;8.63;2.13;;;14.20;99.90;;;;;;5018703;28;20036;-85
2022/11/02 02:35:14;;;;;;;10.68;2.08;;;14.20;99.90;;;;;;5019197;28;20029;-85
2022/11/02 02:37:58;;;;;;;10.82;1.52;;;14.20;99.90;;;;;;5052853;28;20091;-85
2022/11/02 02:40:39;;;;;;;10.68;1.90;;;14.20;99.90;;;;;;5034663;28;20037;-84
2022/11/02 02:43:25;;;;;;;7.82;1.80;;;14.20;99.90;;;;;;5052978;28;20040;-85
2022/11/02 02:46:00;;;;;;;10.10;1.95;;;14.20;99.90;;;;;;5034441;28;20047;-85
2022/11/02 02:48:26;;;;;;;10.38;1.65;;;14.20;99.90;;;;;;5018601;28;20052;-85
2022/11/02 02:51:08;;;;;;;10.18;1.90;;;14.10;99.90;;;;;;5034768;28;20473;-85
2022/11/02 02:54:06;;;;;;;8.20;2.05;;;14.10;99.90;;;;;;5034979;28;20075;-85
2022/11/02 02:56:43;;;;;;;16.67;4.27;;;14.20;99.90;;;;;;5036761;28;20041;-85
2022/11/02 02:59:31;;;;;;;10.20;2.20;;;14.20;99.90;;;;;;5033637;28;20036;-85
2022/11/02 03:01:59;;;;;;;8.32;2.15;;;14.20;99.90;;;;;;5034809;28;20029;-85
2022/11/02 03:04:27;;;;;;;10.88;2.30;;;14.20;99.90;;;;;;5035067;28;20035;-85
2022/11/02 03:06:57;;;;;;;10.98;1.80;;;14.20;99.90;;;;;;5052385;28;20032;-85
2022/11/02 03:09:44;;;;;;;9.75;2.03;;;14.20;99.90;;;;;;5034343;28;20041;-85
2022/11/02 03:12:16;;;;;;;10.95;1.77;;;14.20;99.90;;;;;;5034681;28;20128;-85
2022/11/02 03:15:02;;;;;;;8.77;1.63;;;14.20;99.90;;;;;;5052677;28;20080;-85
2022/11/02 03:17:37;;;;;;;6.68;1.30;;;14.20;99.90;;;;;;5034163;28;20024;-85
2022/11/02 03:20:57;;;;;;;8.90;1.98;;;14.20;99.90;;;;;;5034117;28;20029;-84
2022/11/02 03:23:27;;;;;;;;;;;14.20;99.90;;;;;;5010273;28;20639;-85
2022/11/02 03:26:11;;;;;;;8.48;1.70;;;14.20;99.90;;;;;;5034185;28;19915;-85
2022/11/02 03:28:57;;;;;;;8.00;1.50;;;14.20;99.90;;;;;;5018546;28;20025;-85
2022/11/02 03:31:31;;;;;;;10.30;1.60;;;14.10;99.90;;;;;;5034636;28;20493;-85
2022/11/02 03:34:21;;;;;;;11.50;1.98;;;14.10;99.90;;;;;;5034251;28;20033;-85
2022/11/02 03:36:50;;;;;;;10.43;1.98;;;14.10;99.90;;;;;;5052216;28;20021;-85
2022/11/02 03:39:22;;;;;;;10.50;1.92;;;14.10;99.90;;;;;;5033647;28;20079;-84
2022/11/02 03:41:50;;;;;;;7.90;1.70;;;14.10;99.90;;;;;;5034149;28;20033;-85
2022/11/02 03:44:22;;;;;;;9.38;1.52;;;14.00;99.90;;;;;;5034069;28;20497;-85
2022/11/02 03:46:51;;;;;;;9.50;1.83;;;14.00;99.90;;;;;;5034112;28;20401;-85
2022/11/02 03:49:20;;;;;;;11.18;2.00;;;14.00;99.90;;;;;;5033920;28;20029;-84
2022/11/02 03:51:49;;;;;;;10.82;2.22;;;14.00;99.90;;;;;;5033542;28;20047;-84
2022/11/02 03:54:26;;;;;;;10.45;2.10;;;14.00;99.90;;;;;;5051601;28;20025;-84
2022/11/02 03:56:57;;;;;;;14.45;2.80;;;14.10;99.90;;;;;;5034001;28;20040;-84
2022/11/02 03:59:23;;;;;;;10.88;2.30;;;14.00;99.90;;;;;;5017223;28;20037;-84
2022/11/02 04:01:50;;;;;;;9.52;3.05;;;14.00;99.90;;;;;;5034244;28;20052;-84
2022/11/02 04:04:18;;;;;;;12.82;2.33;;;14.00;99.90;;;;;;5034137;28;20544;-84
2022/11/02 04:06:46;;;;;;;8.98;2.85;;;14.00;99.90;;;;;;5033531;28;20401;-84
2022/11/02 04:09:12;;;;;;;11.40;2.67;;;14.00;99.90;;;;;;5033056;28;20033;-84
2022/11/02 04:14:37;;;;;;;11.32;2.03;;;13.90;99.90;;;;;;5033721;28;20086;-84
2022/11/02 04:19:53;;;;;;;8.52;2.00;;;13.90;99.90;;;;;;5033185;28;20033;-84
2022/11/02 04:25:14;;;;;;;9.98;1.85;;;13.90;99.90;;;;;;5033621;28;20055;-85
2022/11/02 04:27:50;;;;;;;9.45;2.03;;;13.90;99.90;;;;;;5032790;28;20021;-84
2022/11/02 04:30:20;;;;;;;7.97;2.13;;;13.90;99.90;;;;;;5033605;28;20056;-85
2022/11/02 04:35:39;;;;;;;12.70;2.60;;;13.90;99.90;;;;;;5032872;28;20029;-84
2022/11/02 04:41:40;;;;;;;10.30;2.58;;;13.80;99.90;;;;;;5032739;28;20025;-84
2022/11/02 04:43:37;;;;;;;12.57;2.90;;;13.90;99.90;;;;;;5033203;28;20120;-84
2022/11/02 04:46:03;;;;;;;16.35;3.47;;;13.90;99.90;;;;;;5032890;28;20460;-85
2022/11/02 04:48:29;;;;;;;11.73;2.80;;;13.90;99.90;;;;;;5032925;28;20088;-84
2022/11/02 04:50:57;;;;;;;12.52;2.80;;;13.90;99.90;;;;;;5033424;28;20546;-84
2022/11/02 04:53:23;;;;;;;11.63;3.40;;;13.90;99.90;;;;;;5032384;28;20025;-83
2022/11/02 04:55:49;;;;;;;15.55;2.95;;;13.90;99.90;;;;;;5016314;28;20060;-84
2022/11/02 04:58:15;;;;;;;10.15;2.28;;;13.80;99.90;;;;;;5050451;28;20040;-84
2022/11/02 05:00:41;;;;;;;10.15;2.20;;;13.80;99.90;;;;;;5032273;28;20025;-84
2022/11/02 05:06:49;;;;;;;10.50;2.28;;;13.80;99.90;;;;;;5050218;28;20115;-85
2022/11/02 05:09:17;;;;;;;14.27;3.17;;;13.80;99.90;;;;;;5032123;28;20021;-85
2022/11/02 05:11:45;;;;;;;11.50;2.95;;;13.80;99.90;;;;;;5032497;28;20025;-84
2022/11/02 05:14:11;;;;;;;17.15;5.18;;;13.80;99.90;;;;;;5032393;28;20040;-84
2022/11/02 05:16:37;;;;;;;22.10;5.18;;;13.80;99.90;;;;;;5032101;28;20040;-84
2022/11/02 05:19:03;;;;;;;13.68;3.85;;;13.80;99.90;;;;;;5032079;28;20029;-84
2022/11/02 05:21:29;;;;;;;20.42;4.38;;;13.80;99.90;;;;;;5033340;28;20393;-84
2022/11/02 05:23:57;;;;;;;13.77;3.28;;;13.90;99.90;;;;;;5036342;28;20033;-84
2022/11/02 05:26:23;;;;;;;14.57;4.13;;;13.80;99.90;;;;;;5035734;28;20132;-84
2022/11/02 05:28:51;;;;;;;13.27;3.60;;;13.80;99.90;;;;;;5035662;28;20481;-84
2022/11/02 05:31:17;;;;;;;15.15;3.78;;;13.80;99.90;;;;;;5053857;28;20516;-84
2022/11/02 05:33:43;;;;;;;11.35;3.15;;;13.80;99.90;;;;;;5036041;28;20036;-84
2022/11/02 05:36:15;;;;;;;22.63;3.30;;;13.80;99.90;;;;;;5019572;28;20036;-84
2022/11/02 05:38:44;;;;;;;10.18;2.47;;;13.80;99.90;;;;;;5019388;28;20040;-84
2022/11/02 05:41:10;;;;;;;11.38;2.63;;;13.80;99.90;;;;;;5019140;28;20025;-84
2022/11/02 05:43:38;;;;;;;10.48;2.50;;;13.80;99.90;;;;;;5035429;28;20033;-84
2022/11/02 05:46:06;;;;;;;16.90;3.40;;;13.70;99.90;;;;;;5035390;28;20153;-84
2022/11/02 05:48:32;;;;;;;13.00;3.30;;;13.70;99.90;;;;;;5035147;28;20068;-85
2022/11/02 05:51:00;;;;;;;11.30;2.58;;;13.70;99.90;;;;;;5053207;28;20090;-84
2022/11/02 05:53:30;;;;;;;17.20;3.10;;;13.70;99.90;;;;;;5035397;28;20029;-84
2022/11/02 05:55:57;;;;;;;11.35;2.60;;;13.70;99.90;;;;;;5035171;28;20033;-85
2022/11/02 05:58:23;;;;;;;12.30;3.28;;;13.60;99.90;;;;;;5053143;28;20052;-84
2022/11/02 06:00:49;;;;;;;9.73;2.38;;;13.60;99.90;;;;;;5053133;28;20075;-84
2022/11/02 06:03:16;;;;;;;11.52;2.40;;;13.60;99.90;;;;;;5035142;28;20088;-84
2022/11/02 06:05:57;;;;;;;12.25;2.70;;;13.50;99.90;;;;;;5052962;28;20082;-84
2022/11/02 06:08:23;;;;;;;13.75;3.30;;;13.60;99.90;;;;;;5052893;28;20029;-85
2022/11/02 06:10:49;;;;;;;13.23;3.00;;;13.50;99.90;;;;;;5052807;28;20485;-85
2022/11/02 06:13:15;;;;;;;18.13;3.30;;;13.50;99.90;;;;;;5052851;28;20029;-85
2022/11/02 06:15:40;;;;;;;12.40;3.33;;;13.50;99.90;;;;;;5052594;28;20108;-85
2022/11/02 06:18:06;;;;;;;13.05;2.17;;;13.50;99.90;;;;;;5052762;28;20096;-84
2022/11/02 06:20:33;;;;;;;21.30;3.50;;;13.50;99.90;;;;;;5034608;28;20111;-84
2022/11/02 06:22:59;;;;;;;12.65;2.60;;;13.50;99.90;;;;;;5052713;28;20029;-84
2022/11/02 06:25:25;;;;;;;12.10;2.45;;;13.50;99.90;;;;;;5052617;28;20044;-85
2022/11/02 06:27:53;;;;;;;15.55;3.08;;;13.50;99.90;;;;;;5034715;28;20021;-85
2022/11/02 06:30:20;;;;;;;12.40;2.72;;;13.50;99.90;;;;;;5034507;28;20024;-85
2022/11/02 06:32:51;;;;;;;7.88;2.00;;;13.40;99.90;;;;;;5034024;28;20033;-85
2022/11/02 06:35:18;;;;;;;13.10;2.33;;;13.40;99.90;;;;;;5035068;28;20036;-85
2022/11/02 06:37:45;;;;;;;12.45;2.13;;;13.50;99.90;;;;;;5034302;28;20037;-85
2022/11/02 06:40:12;;;;;;;11.48;2.30;;;13.40;99.90;;;;;;5034993;28;20029;-85
2022/11/02 06:42:38;;;;;;;8.82;1.92;;;13.50;99.90;;;;;;5052408;28;20033;-85
2022/11/02 06:45:05;;;;;;;13.10;1.88;;;13.50;99.90;;;;;;5052518;28;20440;-85
2022/11/02 06:47:36;;;;;;;12.07;2.08;;;13.50;99.90;;;;;;5034048;28;20471;-85
2022/11/02 06:50:03;;;;;;;11.32;1.80;;;13.50;99.90;;;;;;5017567;28;20029;-85
2022/11/02 06:52:29;;;;;;;12.18;1.67;;;13.50;99.90;;;;;;5052393;28;20438;-85
2022/11/02 06:54:55;;;;;;;9.02;1.85;;;13.40;99.90;;;;;;5052421;28;20044;-85
2022/11/02 06:57:21;;;;;;;11.98;2.47;;;13.40;99.90;;;;;;5051760;28;20088;-85
2022/11/02 06:59:47;;;;;;;10.82;2.10;;;13.50;99.90;;;;;;5051828;28;20103;-85
2022/11/02 07:02:13;;;;;;;11.68;2.13;;;13.50;99.90;;;;;;5034216;28;20029;-85
2022/11/02 07:04:39;;;;;;;12.00;2.15;;;13.50;99.90;;;;;;5033954;28;20107;-85
2022/11/02 07:07:05;;;;;;;13.00;1.88;;;13.50;99.90;;;;;;5051684;28;20120;-85
2022/11/02 07:09:31;;;;;;;14.27;2.08;;;13.50;99.90;;;;;;5051807;28;20028;-85
2022/11/02 07:11:57;;;;;;;15.55;2.33;;;13.60;99.90;;;;;;5052038;28;20444;-85
2022/11/02 07:14:22;;;;;;;12.40;2.00;;;13.60;99.90;;;;;;5051781;28;20117;-85
2022/11/02 07:16:48;;;;;;;13.10;2.15;;;13.50;99.90;;;;;;5051384;28;20032;-85
2022/11/02 07:19:14;;;;;;;13.35;2.20;;;13.60;99.90;;;;;;5051183;28;20060;-86
2022/11/02 07:21:40;;;;;;;14.82;2.67;;;13.60;99.90;;;;;;5051600;28;20041;-85
2022/11/02 07:24:06;;;;;;;15.88;3.30;;;13.60;99.90;;;;;;5051652;28;20060;-85
2022/11/02 07:26:31;;;;;;;13.75;3.13;;;13.50;99.90;;;;;;5051364;28;20024;-86
2022/11/02 07:28:57;;;;;;;10.75;1.85;;;13.50;99.90;;;;;;5051258;28;20109;-85
2022/11/02 07:31:23;;;;;;;8.75;2.00;;;13.50;99.90;;;;;;5051319;28;20025;-85
2022/11/02 07:33:49;;;;;;;11.90;2.15;;;13.60;99.90;;;;;;5051268;28;20025;-85
2022/11/02 07:36:15;;;;;;;11.52;3.03;;;13.60;99.90;;;;;;5051618;28;20163;-85
2022/11/02 07:38:41;;;;;;;11.70;2.40;;;13.50;99.90;;;;;;5040645;23;20052;-86
2022/11/02 07:41:07;;;;;;;11.70;3.10;;;13.50;99.90;;;;;;5032805;28;20482;-86
2022/11/02 07:43:33;;;;;;;12.38;2.00;;;13.50;99.90;;;;;;5032836;28;20037;-86
2022/11/02 07:46:12;;;;;;;;;;;13.50;99.90;;;;;;5016875;28;20022;-86
2022/11/02 07:48:38;;;;;;;9.73;2.20;;;13.50;99.90;;;;;;5021395;28;19920;-86
2022/11/02 07:51:05;;;;;;;9.45;2.25;;;13.50;99.90;;;;;;5034226;28;20067;-86
2022/11/02 07:53:31;;;;;;;12.70;2.10;;;13.50;99.90;;;;;;5052917;28;20029;-86
2022/11/02 07:55:59;;;;;;;12.45;3.33;;;13.50;99.90;;;;;;5034113;28;20044;-86
2022/11/02 07:58:25;;;;;;;10.48;2.10;;;13.50;99.90;;;;;;5034040;28;20079;-86
2022/11/02 08:00:53;;;;;;;8.15;2.28;;;13.50;99.90;;;;;;5050996;28;20040;-86
2022/11/02 08:03:19;;;;;;;11.52;2.72;;;13.50;99.90;;;;;;5033792;28;20029;-86
2022/11/02 08:05:45;;;;;;;12.45;1.90;;;13.60;99.90;;;;;;5051849;28;20025;-86
2022/11/02 08:08:14;;;;;;;12.55;2.30;;;13.60;99.90;;;;;;5052446;28;20025;-86
2022/11/02 08:10:40;;;;;;;15.35;2.60;;;13.60;99.90;;;;;;5032895;28;20021;-86
2022/11/02 08:13:39;;;;;;;6.93;1.92;;;13.60;99.90;;;;;;5016549;28;20394;-87
2022/11/02 08:35:21;;;;;;;12.15;2.13;;;15.10;99.90;;;;;;5372300;23;20420;-86
2022/11/02 08:37:56;;;;;;;14.77;2.35;;;15.10;99.90;;;;;;5013084;28;20066;-84
2022/11/02 08:40:22;;;;;;;12.80;2.65;;;14.90;99.90;;;;;;4992178;28;20042;-83
2022/11/02 08:42:48;;;;;;;22.05;4.47;;;14.70;99.90;;;;;;4992011;28;20022;-84
2022/11/02 08:45:14;;;;;;;12.80;2.40;;;14.50;99.90;;;;;;4992131;28;20031;-84
2022/11/02 08:47:40;;;;;;;11.50;3.03;;;14.40;99.90;;;;;;4991741;28;20049;-84
2022/11/02 08:50:07;;;;;;;13.77;2.10;;;14.30;99.90;;;;;;4990552;28;20499;-83
2022/11/02 08:52:37;;;;;;;13.32;2.50;;;14.20;99.90;;;;;;4992126;28;20038;-83
2022/11/02 08:55:03;;;;;;;10.25;2.35;;;14.20;99.90;;;;;;4992043;28;20170;-84
2022/11/02 08:57:29;;;;;;;13.15;2.28;;;14.10;99.90;;;;;;4961218;28;20034;-84
2022/11/02 08:59:55;;;;;;;11.30;2.25;;;14.10;99.90;;;;;;4978888;28;20118;-84
2022/11/02 09:02:21;;;;;;;9.13;1.90;;;14.10;99.90;;;;;;4979132;28;20042;-83
2022/11/02 09:04:46;;;;;;;8.05;1.70;;;14.10;99.90;;;;;;4996494;28;20058;-84
2022/11/02 09:07:12;;;;;;;11.75;2.10;;;14.10;99.90;;;;;;4996556;28;20054;-84
2022/11/02 09:09:38;;;;;;;12.88;2.00;;;14.10;99.90;;;;;;4987030;28;20370;-85
2022/11/02 09:12:04;;;;;;;14.88;2.67;;;14.10;99.90;;;;;;4975589;28;20034;-84
2022/11/02 09:14:30;;;;;;;10.73;2.05;;;14.10;99.90;;;;;;4975557;28;20495;-83
2022/11/02 09:16:56;;;;;;;11.93;2.20;;;14.10;99.90;;;;;;4975392;28;20030;-84
2022/11/02 09:19:21;;;;;;;9.68;2.20;;;14.00;99.90;;;;;;4975446;28;20030;-83
2022/11/02 09:21:48;;;;;;;13.20;2.50;;;14.10;99.90;;;;;;4975526;28;20030;-84
2022/11/02 09:24:14;;;;;;;11.38;2.30;;;14.00;99.90;;;;;;4975586;28;20034;-84
2022/11/02 09:26:40;;;;;;;12.30;2.40;;;14.10;99.90;;;;;;4975185;28;20082;-84
2022/11/02 09:29:05;;;;;;;13.85;2.53;;;14.10;99.90;;;;;;4957930;28;20031;-84
2022/11/02 09:31:31;;;;;;;10.85;2.13;;;14.20;99.90;;;;;;4975333;28;20037;-84
2022/11/02 09:33:57;;;;;;;11.43;2.10;;;14.20;99.90;;;;;;4957976;28;20039;-83
2022/11/02 09:36:23;;;;;;;10.57;2.20;;;14.20;99.90;;;;;;4975145;28;20045;-84
2022/11/02 09:38:48;;;;;;;13.02;2.72;;;14.20;99.90;;;;;;4976124;28;20399;-83
2022/11/02 09:41:39;;;;;;;13.48;2.60;;;14.20;99.90;;;;;;4975972;28;20030;-84
2022/11/02 09:44:26;;;;;;;16.00;2.53;;;14.20;99.90;;;;;;4976342;28;20045;-84
2022/11/02 09:46:52;;;;;;;11.15;2.42;;;14.10;99.90;;;;;;4974962;28;20126;-86
2022/11/02 09:49:20;;;;;;;11.55;2.33;;;14.20;99.90;;;;;;4975107;28;20019;-88
2022/11/02 09:51:48;;;;;;;14.15;2.15;;;14.20;99.90;;;;;;4977100;28;20030;-87
2022/11/02 09:54:53;;;;;;;10.63;2.25;;;14.30;99.90;;;;;;4977309;28;20034;-89
2022/11/02 10:15:49;;;;;;;14.70;3.13;;;14.20;99.90;;;;;;4915951;29;20043;-89
2022/11/02 10:18:23;;;;;;;12.75;2.55;;;14.20;99.90;;;;;;4901424;29;20047;-88
2022/11/02 10:21:20;;;;;;;14.02;2.33;;;14.30;99.90;;;;;;4916191;29;20035;-90
2022/11/02 10:26:33;;;;;;;13.68;2.70;;;14.30;99.90;;;;;;5433063;23;20062;-86
2022/11/02 10:32:49;;;;;;;14.38;2.65;;;14.40;99.90;;;;;;4936631;29;20054;-86
2022/11/02 10:35:22;;;;;;;13.80;2.70;;;14.50;99.90;;;;;;4917509;29;20106;-85
2022/11/02 10:38:15;;;;;;;14.55;2.63;;;14.50;99.90;;;;;;4988689;28;20038;-84
2022/11/02 10:41:00;;;;;;;13.85;2.00;;;14.50;99.90;;;;;;4981465;28;20038;-87
2022/11/02 10:43:47;;;;;;;11.30;2.08;;;14.50;99.90;;;;;;4998674;28;20030;-90
2022/11/02 10:46:41;;;;;;;9.57;2.30;;;14.50;99.30;;;;;;5013833;28;20117;-85
2022/11/02 10:49:18;;;;;;;9.85;2.00;;;14.40;99.10;;;;;;5011447;28;20029;-85
2022/11/02 10:51:43;;;;;;;9.45;1.90;;;14.50;99.20;;;;;;5011681;28;20113;-85
2022/11/02 10:54:14;;;;;;;10.27;2.10;;;14.40;99.50;;;;;;5012548;28;20574;-86
2022/11/02 10:56:42;;;;;;;8.23;2.03;;;14.40;99.30;;;;;;5012079;28;20120;-85
2022/11/02 10:59:14;;;;;;;12.07;1.85;;;14.40;99.20;;;;;;5012238;28;20157;-86
2022/11/02 11:02:05;;;;;;;11.10;2.40;;;14.40;99.20;;;;;;5012088;28;20125;-85
2022/11/02 11:04:33;;;;;;;8.73;2.08;;;14.50;98.90;;;;;;5012193;28;20478;-85
2022/11/02 11:07:11;;;;;;;13.60;2.10;;;14.50;98.60;;;;;;5012511;28;20029;-85
2022/11/02 11:09:46;;;;;;;11.68;2.05;;;14.50;98.30;;;;;;4994588;28;20041;-85
2022/11/02 11:12:21;;;;;;;8.32;1.40;;;14.50;98.20;;;;;;4994785;28;20398;-85
2022/11/02 11:14:56;;;;;;;11.45;1.95;;;14.50;98.20;;;;;;5012293;28;20033;-85
2022/11/02 11:17:36;;;;;;;11.10;2.40;;;14.50;97.50;;;;;;4994598;28;20042;-86
2022/11/02 11:20:06;;;;;;;6.70;1.67;;;14.60;97.80;;;;;;5011303;28;20029;-85
2022/11/02 11:22:36;;;;;;;9.02;2.20;;;14.60;98.00;;;;;;5012050;28;20116;-85
2022/11/02 11:25:26;;;;;;;10.23;1.80;;;14.60;96.90;;;;;;4995200;28;20030;-85
2022/11/02 11:27:54;;;;;;;11.35;2.17;;;14.70;96.20;;;;;;5013150;28;20029;-85
2022/11/02 11:30:40;;;;;;;9.93;2.35;;;14.60;95.90;;;;;;4995084;28;20494;-85
2022/11/02 11:33:06;;;;;;;9.75;2.17;;;14.70;96.30;;;;;;5011561;28;20042;-86
2022/11/02 11:35:35;;;;;;;9.77;1.60;;;14.70;96.70;;;;;;5011794;28;20127;-85
2022/11/02 11:38:08;;;;;;;7.25;1.70;;;14.70;96.30;;;;;;5011680;28;20034;-85
2022/11/02 11:40:43;;;;;;;11.35;2.00;;;14.70;96.60;;;;;;5011615;28;20599;-86
2022/11/02 11:43:16;;;;;;;8.50;2.10;;;14.70;96.40;;;;;;5011587;28;20034;-86
2022/11/02 11:45:56;;;;;;;8.70;1.90;;;14.70;96.80;;;;;;4993889;28;20061;-86
2022/11/02 11:48:33;;;;;;;11.32;1.65;;;14.80;96.10;;;;;;4993933;28;20041;-86
2022/11/02 11:51:01;;;;;;;10.93;2.00;;;14.70;96.30;;;;;;5011711;28;20160;-86
2022/11/02 11:53:27;;;;;;;8.48;1.70;;;14.80;96.70;;;;;;4994156;28;20057;-85
2022/11/02 11:55:58;;;;;;;12.52;2.25;;;14.80;97.10;;;;;;4993639;28;20053;-85
2022/11/02 11:58:32;;;;;;;10.50;1.95;;;14.80;97.20;;;;;;5011570;28;20029;-86
2022/11/02 12:01:13;;;;;;;11.52;1.98;;;14.90;96.90;;;;;;5011409;28;20040;-85
2022/11/02 12:04:02;;;;;;;11.07;2.78;;;14.80;95.90;;;;;;5011322;28;20073;-85
2022/11/02 12:06:46;;;;;;;10.70;1.80;;;14.90;95.80;;;;;;4993635;28;20507;-86
2022/11/02 12:09:36;;;;;;;11.63;2.42;;;14.90;95.90;;;;;;4977079;28;20040;-86
2022/11/02 12:12:12;;;;;;;8.52;1.65;;;15.00;95.50;;;;;;5011074;28;20513;-85
2022/11/02 12:15:22;;;;;;;11.88;1.67;;;15.00;96.40;;;;;;5011164;28;20026;-86
2022/11/02 12:18:06;;;;;;;10.73;1.95;;;14.90;96.80;;;;;;4961087;28;20095;-85
2022/11/02 12:20:46;;;;;;;8.60;1.90;;;14.90;97.10;;;;;;4993378;28;20049;-86
2022/11/02 12:23:26;;;;;;;12.68;2.78;;;14.90;97.50;;;;;;5011049;28;20038;-85
2022/11/02 12:26:06;;;;;;;9.38;2.03;;;14.90;97.60;;;;;;4993120;28;20392;-85
2022/11/02 12:28:41;;;;;;;11.32;1.65;;;14.90;97.60;;;;;;5010828;28;20041;-86
2022/11/02 12:31:42;;;;;;;6.85;1.35;;;14.90;97.50;;;;;;5010228;28;20126;-85
2022/11/02 12:34:35;;;;;;;7.38;1.63;;;14.90;97.40;;;;;;4911904;29;20063;-86
2022/11/02 12:37:25;;;;;;;11.10;2.63;;;15.00;97.40;;;;;;5008180;28;20046;-86
2022/11/02 12:40:22;;;;;;;13.88;2.55;;;15.00;97.60;;;;;;5011027;28;20054;-86
2022/11/02 12:43:04;;;;;;;12.80;2.83;;;15.10;97.90;;;;;;5010974;28;20029;-86
2022/11/02 12:45:36;;;;;;;11.07;2.00;;;15.10;97.90;;;;;;5010900;28;20034;-86
2022/11/02 12:48:08;;;;;;;8.95;1.58;;;15.10;97.60;;;;;;5010847;28;20065;-86
2022/11/02 12:51:10;;;;;;;11.90;2.40;;;15.00;97.50;;;;;;5010755;28;20030;-86
2022/11/02 12:53:53;;;;;;;9.25;2.22;;;15.10;97.70;;;;;;4993444;28;20527;-86
2022/11/02 12:56:37;;;;;;;15.18;2.47;;;15.00;98.30;;;;;;5010732;28;20030;-85
2022/11/02 12:59:04;;;;;;;15.00;2.53;;;14.90;98.30;;;;;;5010720;28;20026;-86
2022/11/02 13:01:34;;;;;;;15.40;2.40;;;15.00;98.30;;;;;;5010949;28;20521;-86
2022/11/02 13:04:36;;;;;;;14.50;2.28;;;15.00;98.30;;;;;;5010677;28;20030;-86
2022/11/02 13:07:08;;;;;;;11.93;2.05;;;15.00;97.90;;;;;;4976923;28;20030;-86
2022/11/02 13:09:39;;;;;;;13.05;2.50;;;15.00;97.70;;;;;;5010444;28;20105;-86
2022/11/02 13:12:14;;;;;;;10.80;2.05;;;15.00;97.90;;;;;;4993390;28;20037;-86
2022/11/02 13:14:43;;;;;;;11.35;2.45;;;15.00;97.90;;;;;;5010708;28;20112;-85
2022/11/02 13:17:21;;;;;;;;;;;15.00;97.90;;;;;;4993171;28;20430;-85
2022/11/02 13:19:53;;;;;;;10.68;1.77;;;15.00;97.90;;;;;;5010274;28;19913;-86
2022/11/02 13:22:22;;;;;;;10.48;2.42;;;14.90;98.40;;;;;;5010550;28;20053;-86
2022/11/02 13:24:55;;;;;;;12.05;2.15;;;14.90;98.80;;;;;;5010306;28;20044;-86
2022/11/02 13:27:35;;;;;;;13.88;2.40;;;15.00;98.80;;;;;;4992876;28;20050;-86
2022/11/02 13:30:05;;;;;;;9.88;2.33;;;15.00;98.50;;;;;;4992631;28;20030;-85
2022/11/02 13:32:35;;;;;;;12.63;2.10;;;15.10;98.50;;;;;;4992713;28;20402;-86
2022/11/02 13:35:13;;;;;;;9.48;2.05;;;15.10;98.60;;;;;;5010607;28;20038;-86
2022/11/02 13:37:43;;;;;;;17.23;2.95;;;15.10;98.40;;;;;;5010259;28;20034;-86
2022/11/02 13:40:27;;;;;;;8.52;2.17;;;15.20;98.50;;;;;;5023101;23;20121;-85
2022/11/02 13:43:08;;;;;;;10.50;2.20;;;15.10;98.10;;;;;;4993927;28;20089;-85
2022/11/02 13:45:46;;;;;;;10.95;2.50;;;15.20;98.40;;;;;;4996192;28;20087;-85
2022/11/02 13:48:35;;;;;;;12.80;2.42;;;15.10;98.70;;;;;;5013746;28;20364;-85
2022/11/02 13:51:07;;;;;;;13.25;2.28;;;15.10;99.10;;;;;;4994212;28;20030;-85
2022/11/02 13:53:37;;;;;;;13.38;2.70;;;15.10;99.30;;;;;;4994093;28;20542;-85
2022/11/02 13:56:08;;;;;;;15.65;3.33;;;15.10;99.60;;;;;;4994053;28;20038;-85
2022/11/02 13:58:40;;;;;;;13.50;2.97;;;15.10;99.40;;;;;;4976282;28;20555;-85
2022/11/02 14:01:09;;;;;;;11.45;3.28;;;15.10;99.60;;;;;;4993788;28;20475;-85
2022/11/02 14:03:56;;;;;;;18.63;2.72;;;15.10;99.70;;;;;;4976534;28;20287;-85
2022/11/02 14:06:23;;;;;;;17.23;2.53;;;15.20;99.40;;;;;;4993592;28;20026;-85